Time;durP1;ratioP1;P1;durP2;ratioP2;P2;SDS_P1;SDS_P2;PMS_P1;PMS_P2;Temp;Humidity;BMP_temperature;BMP_pressure;BME280_temperature;BME280_humidity;BME280_pressure;Samples;Min_cycle;Max_cycle;Signal;HPM_P1;HPM_P2
2022/07/13 00:00:28;;;;;;;2.83;1.90;;;;;;;;;;6119566;23;20018;-58
2022/07/13 00:02:56;;;;;;;5.07;3.00;;;;;;;;;;6105086;23;20020;-58
2022/07/13 00:05:23;;;;;;;2.65;1.77;;;;;;;;;;6117728;23;20046;-58
2022/07/13 00:07:49;;;;;;;6.97;1.92;;;;;;;;;;6101472;23;20021;-59
2022/07/13 00:10:16;;;;;;;2.15;1.70;;;;;;;;;;6116954;23;20013;-58
2022/07/13 00:12:43;;;;;;;3.08;1.70;;;;;;;;;;6109402;23;20345;-58
2022/07/13 00:15:10;;;;;;;3.42;2.00;;;;;;;;;;6118995;23;20020;-58
2022/07/13 00:17:36;;;;;;;2.40;1.92;;;;;;;;;;6110466;23;20257;-58
2022/07/13 00:20:05;;;;;;;6.20;1.85;;;;;;;;;;6088898;23;20021;-58
2022/07/13 00:22:31;;;;;;;3.97;1.92;;;;;;;;;;6107444;23;20018;-58
2022/07/13 00:24:58;;;;;;;3.28;1.75;;;;;;;;;;6117637;23;20396;-58
2022/07/13 00:27:25;;;;;;;2.53;1.70;;;;;;;;;;6108851;23;20042;-58
2022/07/13 00:29:51;;;;;;;3.63;1.98;;;;;;;;;;6113314;23;20014;-58
2022/07/13 00:32:18;;;;;;;3.85;1.60;;;;;;;;;;6102553;23;20018;-58
2022/07/13 00:34:44;;;;;;;3.08;1.73;;;;;;;;;;6116228;23;20018;-57
2022/07/13 00:37:12;;;;;;;4.68;1.80;;;;;;;;;;6108320;23;20013;-59
2022/07/13 00:39:38;;;;;;;6.25;2.28;;;;;;;;;;6114207;23;20022;-58
2022/07/13 00:42:05;;;;;;;2.28;1.63;;;;;;;;;;6085493;23;20022;-59
2022/07/13 00:44:31;;;;;;;5.63;2.10;;;;;;;;;;6114972;23;20022;-58
2022/07/13 00:46:58;;;;;;;2.15;1.80;;;;;;;;;;6078389;23;20764;-56
2022/07/13 00:49:25;;;;;;;2.95;1.52;;;;;;;;;;6110214;23;20074;-58
2022/07/13 00:51:51;;;;;;;4.40;2.05;;;;;;;;;;6113099;23;20487;-58
2022/07/13 00:54:20;;;;;;;3.05;1.90;;;;;;;;;;6104840;23;20043;-57
2022/07/13 00:56:48;;;;;;;3.30;1.83;;;;;;;;;;6114216;23;20014;-58
2022/07/13 00:59:17;;;;;;;2.50;2.17;;;;;;;;;;6110629;23;20018;-59
2022/07/13 01:01:44;;;;;;;;;;;;;;;;;;6089891;23;20018;-58
2022/07/13 01:04:10;;;;;;;2.83;1.90;;;;;;;;;;6111412;23;19925;-57
2022/07/13 01:06:37;;;;;;;3.70;1.98;;;;;;;;;;6116771;23;20014;-58
2022/07/13 01:09:03;;;;;;;2.45;1.80;;;;;;;;;;6107459;23;20022;-58
2022/07/13 01:11:32;;;;;;;3.75;1.90;;;;;;;;;;6120859;23;20244;-58
2022/07/13 01:13:59;;;;;;;2.72;1.92;;;;;;;;;;6108238;23;20022;-57
2022/07/13 01:16:25;;;;;;;3.83;1.77;;;;;;;;;;6116317;23;20026;-58
2022/07/13 01:18:52;;;;;;;3.40;2.20;;;;;;;;;;6103725;23;20512;-58
2022/07/13 01:21:19;;;;;;;4.15;2.15;;;;;;;;;;6114836;23;20049;-58
2022/07/13 01:23:47;;;;;;;3.33;1.60;;;;;;;;;;6108783;23;20029;-58
2022/07/13 01:26:14;;;;;;;3.80;2.63;;;;;;;;;;6116614;23;20743;-57
2022/07/13 01:28:40;;;;;;;5.85;2.53;;;;;;;;;;6106284;23;20459;-57
2022/07/13 01:31:07;;;;;;;4.95;2.47;;;;;;;;;;6114995;23;20401;-56
2022/07/13 01:33:34;;;;;;;5.57;2.40;;;;;;;;;;6102628;23;20042;-57
2022/07/13 01:36:00;;;;;;;4.90;2.90;;;;;;;;;;6115864;23;20024;-57
2022/07/13 01:38:27;;;;;;;4.00;2.80;;;;;;;;;;6112606;23;20018;-57
2022/07/13 01:40:55;;;;;;;5.97;2.67;;;;;;;;;;6115277;23;20049;-57
2022/07/13 01:43:24;;;;;;;3.55;2.88;;;;;;;;;;6105454;23;20431;-57
2022/07/13 01:45:50;;;;;;;4.60;3.03;;;;;;;;;;6114863;23;20013;-57
2022/07/13 01:48:17;;;;;;;3.45;2.60;;;;;;;;;;6103223;23;20224;-57
2022/07/13 01:50:43;;;;;;;4.68;2.80;;;;;;;;;;6116656;23;20014;-57
2022/07/13 01:53:10;;;;;;;4.00;3.00;;;;;;;;;;6115652;23;20014;-57
2022/07/13 01:55:36;;;;;;;4.90;3.20;;;;;;;;;;6110210;23;20041;-56
2022/07/13 01:58:04;;;;;;;2.97;2.65;;;;;;;;;;6098854;23;20481;-57
2022/07/13 02:00:31;;;;;;;3.35;2.65;;;;;;;;;;6111593;23;20022;-57
2022/07/13 02:02:57;;;;;;;7.13;3.20;;;;;;;;;;6117463;23;20031;-57
2022/07/13 02:05:25;;;;;;;5.88;3.90;;;;;;;;;;6110573;23;20045;-57
2022/07/13 02:07:51;;;;;;;5.20;3.20;;;;;;;;;;6118721;23;20092;-57
2022/07/13 02:10:18;;;;;;;4.22;2.85;;;;;;;;;;6111226;23;20013;-57
2022/07/13 02:12:44;;;;;;;4.75;3.33;;;;;;;;;;6114254;23;20018;-57
2022/07/13 02:15:12;;;;;;;6.18;3.08;;;;;;;;;;6108770;23;20053;-57
2022/07/13 02:17:39;;;;;;;4.28;3.08;;;;;;;;;;6113228;23;20068;-57
2022/07/13 02:20:06;;;;;;;3.53;2.85;;;;;;;;;;6106429;23;20045;-57
2022/07/13 02:22:43;;;;;;;4.32;2.83;;;;;;;;;;6111931;23;20045;-57
2022/07/13 02:25:10;;;;;;;4.22;3.13;;;;;;;;;;6087888;23;20468;-57
2022/07/13 02:27:37;;;;;;;5.28;2.90;;;;;;;;;;6085231;23;20018;-57
2022/07/13 02:30:03;;;;;;;5.90;3.10;;;;;;;;;;6117155;23;20014;-57
2022/07/13 02:32:32;;;;;;;4.80;2.88;;;;;;;;;;6118280;23;20027;-57
2022/07/13 02:34:58;;;;;;;4.60;3.17;;;;;;;;;;6114528;23;20021;-56
2022/07/13 02:37:25;;;;;;;4.18;3.08;;;;;;;;;;6113385;23;20025;-57
2022/07/13 02:39:55;;;;;;;7.65;2.60;;;;;;;;;;6113748;23;20101;-57
2022/07/13 02:42:22;;;;;;;4.45;3.00;;;;;;;;;;6107219;23;20093;-57
2022/07/13 02:44:48;;;;;;;5.57;2.50;;;;;;;;;;6117861;23;20014;-57
2022/07/13 02:47:15;;;;;;;3.17;2.88;;;;;;;;;;6115539;23;20018;-57
2022/07/13 02:49:43;;;;;;;3.38;2.70;;;;;;;;;;6078880;23;20069;-57
2022/07/13 02:52:09;;;;;;;7.20;3.30;;;;;;;;;;6116160;23;20022;-57
2022/07/13 02:54:36;;;;;;;3.92;2.65;;;;;;;;;;6107519;23;20078;-57
2022/07/13 02:57:02;;;;;;;6.50;3.15;;;;;;;;;;6116240;23;20018;-57
2022/07/13 02:59:32;;;;;;;4.50;3.00;;;;;;;;;;6078601;23;20046;-57
2022/07/13 03:01:59;;;;;;;4.65;3.15;;;;;;;;;;6119557;23;20057;-56
2022/07/13 03:04:26;;;;;;;4.68;3.28;;;;;;;;;;6114964;23;20049;-57
2022/07/13 03:06:54;;;;;;;5.25;2.95;;;;;;;;;;6110253;23;20437;-57
2022/07/13 03:09:21;;;;;;;4.10;2.80;;;;;;;;;;6118171;23;20022;-57
2022/07/13 03:11:47;;;;;;;4.88;2.90;;;;;;;;;;6107553;23;20014;-57
2022/07/13 03:14:14;;;;;;;3.25;2.63;;;;;;;;;;6120146;23;20022;-57
2022/07/13 03:16:40;;;;;;;5.68;3.47;;;;;;;;;;6108720;23;20022;-57
2022/07/13 03:19:09;;;;;;;3.58;2.75;;;;;;;;;;6119339;23;20018;-57
2022/07/13 03:21:36;;;;;;;5.80;2.72;;;;;;;;;;6113103;23;20022;-57
2022/07/13 03:24:04;;;;;;;3.67;2.92;;;;;;;;;;6113172;23;20026;-57
2022/07/13 03:26:30;;;;;;;4.43;3.00;;;;;;;;;;6116489;23;20463;-59
2022/07/13 03:28:57;;;;;;;4.28;2.78;;;;;;;;;;6111576;23;20069;-57
2022/07/13 03:31:24;;;;;;;4.88;2.72;;;;;;;;;;6116799;23;20018;-57
2022/07/13 03:33:51;;;;;;;3.90;2.90;;;;;;;;;;6106833;23;20517;-56
2022/07/13 03:36:17;;;;;;;5.88;3.17;;;;;;;;;;6121197;23;20014;-55
2022/07/13 03:38:44;;;;;;;5.93;3.42;;;;;;;;;;6112580;23;20073;-57
2022/07/13 03:41:12;;;;;;;4.43;3.10;;;;;;;;;;6097062;23;20018;-59
2022/07/13 03:43:38;;;;;;;3.03;2.72;;;;;;;;;;6115298;23;20066;-55
2022/07/13 03:46:05;;;;;;;3.70;3.30;;;;;;;;;;6111002;23;20014;-57
2022/07/13 03:48:31;;;;;;;4.90;3.67;;;;;;;;;;6113455;23;20014;-57
2022/07/13 03:50:58;;;;;;;8.35;3.70;;;;;;;;;;6110880;23;20425;-57
2022/07/13 03:53:24;;;;;;;5.82;3.40;;;;;;;;;;6061007;23;20042;-57
2022/07/13 03:55:51;;;;;;;7.13;4.15;;;;;;;;;;6115568;23;20097;-57
2022/07/13 03:58:19;;;;;;;6.50;4.03;;;;;;;;;;6114153;23;20076;-55
2022/07/13 04:00:46;;;;;;;7.68;4.10;;;;;;;;;;6104977;23;20031;-56
2022/07/13 04:03:12;;;;;;;4.50;3.88;;;;;;;;;;6116638;23;20018;-58
2022/07/13 04:05:39;;;;;;;5.82;3.75;;;;;;;;;;6116151;23;20045;-58
2022/07/13 04:08:05;;;;;;;6.45;3.85;;;;;;;;;;6112203;23;20017;-57
2022/07/13 04:10:32;;;;;;;4.10;3.70;;;;;;;;;;6119838;23;20771;-57
2022/07/13 04:12:59;;;;;;;5.00;3.63;;;;;;;;;;6112230;23;20078;-56
2022/07/13 04:15:27;;;;;;;5.13;3.63;;;;;;;;;;6118809;23;20037;-58
2022/07/13 04:17:53;;;;;;;4.72;4.18;;;;;;;;;;6115312;23;20014;-58
2022/07/13 04:20:21;;;;;;;6.50;4.55;;;;;;;;;;6112523;23;20021;-58
2022/07/13 04:22:48;;;;;;;7.57;4.35;;;;;;;;;;6106041;23;20634;-57
2022/07/13 04:25:14;;;;;;;7.35;4.90;;;;;;;;;;6113066;23;20050;-58
2022/07/13 04:27:41;;;;;;;6.53;4.45;;;;;;;;;;6112461;23;20097;-58
2022/07/13 04:30:08;;;;;;;5.85;4.65;;;;;;;;;;6115367;23;20028;-58
2022/07/13 04:32:37;;;;;;;6.90;4.80;;;;;;;;;;6108238;23;20014;-58
2022/07/13 04:35:04;;;;;;;5.20;4.43;;;;;;;;;;6122440;23;20032;-59
2022/07/13 04:37:30;;;;;;;7.15;4.13;;;;;;;;;;6115838;23;20765;-58
2022/07/13 04:39:56;;;;;;;5.70;4.47;;;;;;;;;;6118472;23;20017;-57
2022/07/13 04:42:23;;;;;;;7.90;5.18;;;;;;;;;;6102898;23;20024;-57
2022/07/13 04:44:50;;;;;;;6.32;4.90;;;;;;;;;;6119350;23;20088;-58
2022/07/13 04:47:16;;;;;;;7.80;5.38;;;;;;;;;;6113821;23;20049;-58
2022/07/13 04:49:44;;;;;;;6.50;4.15;;;;;;;;;;6109970;23;20069;-58
2022/07/13 04:52:11;;;;;;;10.35;5.15;;;;;;;;;;6114618;23;20017;-58
2022/07/13 04:54:37;;;;;;;5.82;4.82;;;;;;;;;;6116109;23;20018;-57
2022/07/13 04:57:03;;;;;;;9.32;4.90;;;;;;;;;;6083955;23;20144;-58
2022/07/13 04:59:30;;;;;;;9.55;5.20;;;;;;;;;;6117562;23;20049;-58
2022/07/13 05:01:56;;;;;;;6.80;6.10;;;;;;;;;;6106485;23;20018;-58
2022/07/13 05:04:24;;;;;;;6.43;5.32;;;;;;;;;;6105553;23;20022;-58
2022/07/13 05:06:52;;;;;;;12.70;6.30;;;;;;;;;;6118848;23;20070;-57
2022/07/13 05:09:18;;;;;;;11.93;5.93;;;;;;;;;;6111915;23;20026;-54
2022/07/13 05:11:45;;;;;;;7.35;5.22;;;;;;;;;;6116612;23;20020;-58
2022/07/13 05:14:11;;;;;;;6.20;5.60;;;;;;;;;;6111832;23;20041;-58
2022/07/13 05:16:38;;;;;;;6.13;4.95;;;;;;;;;;6114488;23;20045;-58
2022/07/13 05:19:05;;;;;;;12.88;5.78;;;;;;;;;;6105062;23;20022;-57
2022/07/13 05:21:31;;;;;;;7.43;4.90;;;;;;;;;;6116940;23;20025;-57
2022/07/13 05:23:59;;;;;;;9.38;5.07;;;;;;;;;;6114538;23;20049;-58
2022/07/13 05:26:25;;;;;;;5.88;5.22;;;;;;;;;;6116010;23;20014;-58
2022/07/13 05:28:52;;;;;;;7.72;4.85;;;;;;;;;;6109980;23;20473;-57
2022/07/13 05:31:19;;;;;;;6.68;4.43;;;;;;;;;;6119341;23;20018;-54
2022/07/13 05:33:45;;;;;;;11.40;5.32;;;;;;;;;;6103383;23;20465;-58
2022/07/13 05:36:12;;;;;;;5.43;4.43;;;;;;;;;;6116302;23;20151;-58
2022/07/13 05:38:39;;;;;;;11.38;5.03;;;;;;;;;;6090449;23;20587;-56
2022/07/13 05:41:07;;;;;;;10.88;5.07;;;;;;;;;;6099695;23;20014;-57
2022/07/13 05:43:33;;;;;;;8.82;5.55;;;;;;;;;;6111265;23;20014;-58
2022/07/13 05:46:00;;;;;;;9.02;5.32;;;;;;;;;;6107504;23;20029;-57
2022/07/13 05:48:26;;;;;;;6.50;5.78;;;;;;;;;;6110585;23;20124;-57
2022/07/13 05:50:53;;;;;;;6.57;5.70;;;;;;;;;;6106387;23;20013;-57
2022/07/13 05:53:20;;;;;;;7.65;4.97;;;;;;;;;;6119164;23;20139;-58
2022/07/13 05:55:46;;;;;;;7.28;4.43;;;;;;;;;;6101590;23;20379;-57
2022/07/13 05:58:14;;;;;;;8.45;4.57;;;;;;;;;;6119330;23;20513;-58
2022/07/13 06:00:41;;;;;;;5.93;4.68;;;;;;;;;;6110577;23;20610;-56
2022/07/13 06:03:07;;;;;;;6.10;4.03;;;;;;;;;;6091950;23;20037;-58
2022/07/13 06:05:34;;;;;;;5.47;4.75;;;;;;;;;;6112436;23;20397;-57
2022/07/13 06:08:00;;;;;;;6.50;4.63;;;;;;;;;;6113665;23;20373;-55
2022/07/13 06:10:27;;;;;;;8.07;3.72;;;;;;;;;;6113618;23;20041;-58
2022/07/13 06:12:53;;;;;;;6.60;4.38;;;;;;;;;;6111851;23;20022;-56
2022/07/13 06:15:21;;;;;;;5.72;4.13;;;;;;;;;;6109453;23;20042;-56
2022/07/13 06:17:48;;;;;;;8.68;3.55;;;;;;;;;;6116210;23;20017;-57
2022/07/13 06:20:14;;;;;;;8.95;4.57;;;;;;;;;;6109647;23;20018;-57
2022/07/13 06:22:41;;;;;;;5.38;3.22;;;;;;;;;;6116261;23;20015;-56
2022/07/13 06:25:07;;;;;;;4.10;3.22;;;;;;;;;;6116825;23;20045;-57
2022/07/13 06:27:34;;;;;;;5.03;2.95;;;;;;;;;;6117452;23;20042;-57
2022/07/13 06:30:00;;;;;;;5.45;3.22;;;;;;;;;;6112143;23;20179;-58
2022/07/13 06:32:28;;;;;;;3.00;2.70;;;;;;;;;;6105423;23;20014;-57
2022/07/13 06:34:56;;;;;;;3.05;2.63;;;;;;;;;;6115938;23;20018;-57
2022/07/13 06:37:23;;;;;;;2.95;2.63;;;;;;;;;;6106481;23;20014;-57
2022/07/13 06:39:49;;;;;;;4.70;3.42;;;;;;;;;;6119404;23;20018;-57
2022/07/13 06:42:16;;;;;;;4.15;3.17;;;;;;;;;;6088638;23;20013;-58
2022/07/13 06:44:42;;;;;;;5.28;2.45;;;;;;;;;;6093027;23;20025;-57
2022/07/13 06:47:09;;;;;;;7.43;3.40;;;;;;;;;;6085910;23;20014;-57
2022/07/13 06:49:36;;;;;;;4.38;2.90;;;;;;;;;;6112468;23;20018;-58
2022/07/13 06:52:03;;;;;;;2.55;2.30;;;;;;;;;;6118958;23;20020;-58
2022/07/13 06:54:30;;;;;;;6.65;3.40;;;;;;;;;;6120002;23;20018;-57
2022/07/13 06:56:57;;;;;;;7.22;3.13;;;;;;;;;;6107803;23;20054;-59
2022/07/13 06:59:24;;;;;;;4.82;2.85;;;;;;;;;;6114106;23;20025;-58
2022/07/13 07:01:52;;;;;;;6.55;2.55;;;;;;;;;;6111381;23;20014;-58
2022/07/13 07:04:18;;;;;;;4.28;2.47;;;;;;;;;;6108480;23;20022;-58
2022/07/13 07:06:46;;;;;;;4.25;2.60;;;;;;;;;;6113560;23;20014;-58
2022/07/13 07:09:13;;;;;;;5.85;2.97;;;;;;;;;;6115728;23;20048;-58
2022/07/13 07:11:39;;;;;;;6.00;3.03;;;;;;;;;;6112910;23;20037;-58
2022/07/13 07:14:06;;;;;;;3.65;2.80;;;;;;;;;;6115774;23;20018;-58
2022/07/13 07:16:32;;;;;;;4.72;2.53;;;;;;;;;;6102628;23;20022;-58
2022/07/13 07:18:59;;;;;;;4.68;2.75;;;;;;;;;;6107361;23;20026;-56
2022/07/13 07:21:25;;;;;;;6.47;2.67;;;;;;;;;;6108435;23;20010;-58
2022/07/13 07:23:53;;;;;;;4.30;2.33;;;;;;;;;;6106220;23;20014;-58
2022/07/13 07:26:20;;;;;;;3.67;2.70;;;;;;;;;;6102823;23;20021;-58
2022/07/13 07:28:47;;;;;;;4.65;3.38;;;;;;;;;;6100758;23;20382;-57
2022/07/13 07:31:13;;;;;;;5.60;2.78;;;;;;;;;;6119276;23;20014;-57
2022/07/13 07:33:41;;;;;;;4.43;2.70;;;;;;;;;;6109225;23;20014;-58
2022/07/13 07:36:08;;;;;;;7.82;2.53;;;;;;;;;;6115249;23;20018;-58
2022/07/13 07:38:34;;;;;;;3.88;2.50;;;;;;;;;;6108691;23;20093;-59
2022/07/13 07:41:02;;;;;;;7.70;2.60;;;;;;;;;;6107664;23;20045;-57
2022/07/13 07:43:29;;;;;;;4.13;2.25;;;;;;;;;;6083465;23;20555;-56
2022/07/13 07:45:55;;;;;;;4.53;2.60;;;;;;;;;;6102682;23;20021;-57
2022/07/13 07:48:22;;;;;;;3.85;2.53;;;;;;;;;;6113392;23;20613;-57
2022/07/13 07:50:48;;;;;;;4.28;2.55;;;;;;;;;;6101505;23;20013;-56
2022/07/13 07:53:15;;;;;;;3.78;2.30;;;;;;;;;;6112014;23;20018;-58
2022/07/13 07:55:41;;;;;;;3.05;2.50;;;;;;;;;;6101589;23;20022;-57
2022/07/13 07:58:09;;;;;;;2.97;2.65;;;;;;;;;;6106742;23;20018;-58
2022/07/13 08:00:36;;;;;;;2.75;2.20;;;;;;;;;;6079059;23;20021;-58
2022/07/13 08:03:03;;;;;;;4.15;2.28;;;;;;;;;;6107518;23;20021;-57
2022/07/13 08:05:30;;;;;;;7.00;2.78;;;;;;;;;;6111694;23;20025;-58
2022/07/13 08:07:57;;;;;;;4.05;2.38;;;;;;;;;;6083995;23;20018;-58
2022/07/13 08:10:23;;;;;;;5.03;2.20;;;;;;;;;;6052385;23;20068;-56
2022/07/13 08:12:50;;;;;;;5.50;2.15;;;;;;;;;;6081212;23;20018;-54
2022/07/13 08:15:18;;;;;;;6.13;2.22;;;;;;;;;;6115503;23;20014;-54
2022/07/13 08:17:44;;;;;;;4.00;2.17;;;;;;;;;;6108383;23;20041;-57
2022/07/13 08:20:11;;;;;;;2.80;2.58;;;;;;;;;;6115139;23;20018;-58
2022/07/13 08:22:38;;;;;;;3.03;1.75;;;;;;;;;;6109764;23;20014;-58
2022/07/13 08:25:05;;;;;;;5.03;2.53;;;;;;;;;;6114972;23;20022;-57
2022/07/13 08:27:32;;;;;;;5.53;2.72;;;;;;;;;;6110816;23;20018;-58
2022/07/13 08:29:59;;;;;;;5.18;2.30;;;;;;;;;;6102687;23;20026;-56
2022/07/13 08:32:27;;;;;;;4.60;2.38;;;;;;;;;;6106076;23;20014;-57
2022/07/13 08:40:22;;;;;;;6.65;2.30;;;;;;;;;;6071154;23;20327;-57
2022/07/13 08:42:48;;;;;;;6.53;2.88;;;;;;;;;;6072246;23;20018;-57
2022/07/13 08:45:15;;;;;;;3.25;2.33;;;;;;;;;;6079570;23;20445;-59
2022/07/13 08:47:45;;;;;;;2.83;2.25;;;;;;;;;;6107583;23;20628;-59
2022/07/13 08:50:12;;;;;;;3.45;2.67;;;;;;;;;;6097474;23;20148;-59
2022/07/13 08:52:40;;;;;;;2.83;1.90;;;;;;;;;;6082151;23;20462;-58
2022/07/13 08:55:08;;;;;;;3.88;2.47;;;;;;;;;;6111867;23;20025;-61
2022/07/13 08:57:35;;;;;;;7.30;2.67;;;;;;;;;;6107078;23;20018;-57
2022/07/13 09:00:02;;;;;;;4.18;2.42;;;;;;;;;;6114174;23;20069;-59
2022/07/13 09:02:29;;;;;;;2.70;2.45;;;;;;;;;;6110924;23;20018;-57
2022/07/13 09:04:58;;;;;;;3.35;2.15;;;;;;;;;;6107150;23;20029;-57
2022/07/13 09:07:25;;;;;;;3.08;2.78;;;;;;;;;;6106989;23;20026;-58
2022/07/13 09:09:54;;;;;;;2.95;2.65;;;;;;;;;;6108073;23;20029;-58
2022/07/13 09:12:21;;;;;;;3.80;3.00;;;;;;;;;;6116870;23;20018;-57
2022/07/13 09:14:52;;;;;;;3.75;2.45;;;;;;;;;;6103707;23;20037;-58
2022/07/13 09:17:29;;;;;;;4.47;2.40;;;;;;;;;;6113209;23;20037;-57
2022/07/13 09:19:58;;;;;;;6.47;3.13;;;;;;;;;;6113019;23;20025;-57
2022/07/13 09:22:24;;;;;;;3.90;2.63;;;;;;;;;;6109017;23;20014;-57
2022/07/13 09:24:53;;;;;;;5.03;2.55;;;;;;;;;;6109404;23;20014;-56
2022/07/13 09:27:20;;;;;;;2.80;2.58;;;;;;;;;;6107787;23;20034;-58
2022/07/13 09:29:47;;;;;;;3.90;2.92;;;;;;;;;;6114779;23;20376;-57
2022/07/13 09:32:15;;;;;;;2.47;2.28;;;;;;;;;;6109378;23;20429;-58
2022/07/13 09:34:46;;;;;;;2.95;2.38;;;;;;;;;;6114867;23;20046;-56
2022/07/13 09:37:15;;;;;;;8.43;2.83;;;;;;;;;;6114427;23;20469;-58
2022/07/13 09:39:55;;;;;;;2.95;2.70;;;;;;;;;;6108123;23;20017;-58
2022/07/13 09:42:25;;;;;;;2.97;2.40;;;;;;;;;;6113028;23;20475;-58
2022/07/13 09:47:41;;;;;;;4.53;2.40;;;;;;;;;;6104205;23;20021;-58
2022/07/13 09:50:07;;;;;;;3.25;2.15;;;;;;;;;;6113501;23;20512;-58
2022/07/13 09:52:36;;;;;;;2.08;1.88;;;;;;;;;;6109656;23;20613;-58
2022/07/13 09:55:04;;;;;;;3.58;2.25;;;;;;;;;;6115640;23;20793;-58
2022/07/13 09:57:33;;;;;;;2.58;2.10;;;;;;;;;;6109808;23;20014;-58
2022/07/13 10:00:00;;;;;;;4.18;2.50;;;;;;;;;;6105678;23;20028;-58
2022/07/13 10:02:27;;;;;;;2.38;2.10;;;;;;;;;;6112502;23;20014;-58
2022/07/13 10:04:54;;;;;;;3.80;2.00;;;;;;;;;;6113858;23;20022;-58
2022/07/13 10:07:21;;;;;;;2.80;1.70;;;;;;;;;;6106365;23;20022;-57
2022/07/13 10:09:49;;;;;;;3.47;2.10;;;;;;;;;;6106522;23;20018;-58
2022/07/13 10:12:15;;;;;;;2.38;2.15;;;;;;;;;;6100942;23;20018;-58
2022/07/13 10:14:42;;;;;;;2.75;2.00;;;;;;;;;;6114151;23;20078;-58
2022/07/13 10:17:10;;;;;;;2.60;1.90;;;;;;;;;;6108464;23;20018;-57
2022/07/13 10:19:43;;;;;;;3.78;2.25;;;;;;;;;;6110682;23;20431;-56
2022/07/13 10:22:11;;;;;;;3.88;1.60;;;;;;;;;;6110841;23;20025;-58
2022/07/13 10:24:39;;;;;;;3.27;1.63;;;;;;;;;;6106449;23;20018;-58
2022/07/13 10:27:22;;;;;;;1.60;1.27;;;;;;;;;;6113633;23;20264;-58
2022/07/13 10:29:49;;;;;;;3.38;1.50;;;;;;;;;;6107974;23;20341;-57
2022/07/13 10:32:17;;;;;;;2.88;1.70;;;;;;;;;;6114010;23;20081;-58
2022/07/13 10:34:50;;;;;;;1.83;1.00;;;;;;;;;;6109339;23;20018;-57
2022/07/13 10:37:16;;;;;;;1.30;1.20;;;;;;;;;;6109494;23;20527;-58
2022/07/13 10:40:10;;;;;;;1.20;1.00;;;;;;;;;;6116179;23;20013;-57
2022/07/13 10:42:55;;;;;;;2.45;1.50;;;;;;;;;;6099036;23;20025;-58
2022/07/13 10:45:40;;;;;;;2.97;1.58;;;;;;;;;;6105825;23;20018;-58
2022/07/13 10:48:07;;;;;;;2.47;1.20;;;;;;;;;;6089800;23;20029;-57
2022/07/13 10:50:39;;;;;;;2.90;1.23;;;;;;;;;;6107338;23;20222;-58
2022/07/13 10:53:06;;;;;;;2.95;1.60;;;;;;;;;;6117991;23;20033;-59
2022/07/13 10:55:34;;;;;;;1.27;1.13;;;;;;;;;;6102320;23;20041;-58
2022/07/13 10:58:01;;;;;;;6.88;1.85;;;;;;;;;;6116015;23;20020;-58
2022/07/13 11:00:41;;;;;;;1.67;1.48;;;;;;;;;;6103373;23;20348;-58
2022/07/13 11:03:23;;;;;;;2.40;1.75;;;;;;;;;;6114357;23;20468;-58
2022/07/13 11:06:04;;;;;;;1.77;1.50;;;;;;;;;;6102067;23;20092;-58
2022/07/13 11:08:30;;;;;;;1.60;1.00;;;;;;;;;;6113286;23;20013;-58
2022/07/13 11:11:09;;;;;;;1.80;1.33;;;;;;;;;;6077620;23;20648;-57
2022/07/13 11:13:36;;;;;;;1.63;1.05;;;;;;;;;;6113841;23;20018;-57
2022/07/13 11:16:06;;;;;;;2.70;1.10;;;;;;;;;;6080483;23;20018;-59
2022/07/13 11:18:33;;;;;;;3.00;1.52;;;;;;;;;;6117959;23;20079;-57
2022/07/13 11:21:00;;;;;;;2.05;1.20;;;;;;;;;;6105953;23;20023;-56
2022/07/13 11:26:14;;;;;;;1.63;1.30;;;;;;;;;;6112093;23;20026;-59
2022/07/13 11:28:44;;;;;;;4.25;1.17;;;;;;;;;;6097915;23;20541;-58
2022/07/13 11:31:13;;;;;;;1.73;1.02;;;;;;;;;;6113315;23;20043;-58
2022/07/13 11:33:48;;;;;;;1.63;1.00;;;;;;;;;;6106275;23;20463;-58
2022/07/13 11:36:15;;;;;;;3.10;1.48;;;;;;;;;;6119035;23;20034;-58
2022/07/13 11:38:41;;;;;;;4.18;1.80;;;;;;;;;;6102884;23;20496;-58
2022/07/13 11:41:16;;;;;;;5.55;1.63;;;;;;;;;;6114510;23;20084;-58
2022/07/13 11:43:45;;;;;;;2.30;1.70;;;;;;;;;;6104390;23;20024;-57
2022/07/13 11:46:13;;;;;;;2.13;1.65;;;;;;;;;;6119813;23;20022;-58
2022/07/13 11:48:40;;;;;;;4.03;2.03;;;;;;;;;;6109254;23;20226;-58
2022/07/13 11:51:08;;;;;;;3.22;1.38;;;;;;;;;;6119958;23;20467;-57
2022/07/13 11:53:35;;;;;;;2.47;1.38;;;;;;;;;;6106233;23;20014;-58
2022/07/13 11:56:04;;;;;;;3.10;1.73;;;;;;;;;;6115150;23;20045;-57
2022/07/13 11:58:31;;;;;;;;;;;;;;;;;;6103735;23;20420;-58
2022/07/13 12:01:02;;;;;;;3.65;1.38;;;;;;;;;;6111758;23;19925;-58
2022/07/13 12:03:34;;;;;;;2.38;1.27;;;;;;;;;;6111786;23;20018;-57
2022/07/13 12:06:03;;;;;;;3.75;1.25;;;;;;;;;;6112227;23;20048;-59
2022/07/13 12:08:33;;;;;;;3.58;1.70;;;;;;;;;;6114256;23;20323;-58
2022/07/13 12:11:00;;;;;;;4.88;1.50;;;;;;;;;;6106220;23;20082;-57
2022/07/13 12:13:26;;;;;;;2.45;1.27;;;;;;;;;;6095290;23;20702;-54
2022/07/13 12:15:53;;;;;;;1.75;1.17;;;;;;;;;;6111535;23;20465;-56
2022/07/13 12:18:19;;;;;;;3.63;1.42;;;;;;;;;;6107934;23;20018;-56
2022/07/13 12:20:47;;;;;;;6.03;1.55;;;;;;;;;;6112914;23;20018;-57
2022/07/13 12:23:15;;;;;;;4.43;1.60;;;;;;;;;;6114331;23;20022;-56
2022/07/13 12:25:41;;;;;;;4.15;1.90;;;;;;;;;;6111073;23;20021;-52
2022/07/13 12:28:09;;;;;;;2.22;1.50;;;;;;;;;;6114431;23;20028;-55
2022/07/13 12:30:38;;;;;;;3.78;1.15;;;;;;;;;;6109588;23;20017;-55
2022/07/13 12:33:06;;;;;;;5.53;1.60;;;;;;;;;;6110826;23;20100;-58
2022/07/13 12:35:35;;;;;;;4.05;1.38;;;;;;;;;;6110744;23;20121;-56
2022/07/13 12:38:05;;;;;;;4.10;1.55;;;;;;;;;;6112146;23;20014;-55
2022/07/13 12:40:41;;;;;;;1.98;0.80;;;;;;;;;;6115078;23;20074;-57
2022/07/13 12:43:18;;;;;;;4.32;1.60;;;;;;;;;;6117119;23;20018;-55
2022/07/13 12:45:45;;;;;;;2.72;1.70;;;;;;;;;;6082874;23;20044;-55
2022/07/13 12:48:15;;;;;;;2.55;1.50;;;;;;;;;;6114995;23;20656;-56
2022/07/13 12:50:43;;;;;;;3.60;1.13;;;;;;;;;;6099857;23;20480;-54
2022/07/13 12:53:11;;;;;;;3.47;1.63;;;;;;;;;;6114075;23;20018;-53
2022/07/13 12:55:53;;;;;;;3.47;1.30;;;;;;;;;;6097641;23;20582;-57
2022/07/13 12:58:22;;;;;;;2.92;1.45;;;;;;;;;;6114735;23;20069;-56
2022/07/13 13:00:48;;;;;;;1.60;1.13;;;;;;;;;;6103217;23;20018;-55
2022/07/13 13:03:19;;;;;;;2.00;1.10;;;;;;;;;;6112023;23;20014;-54
2022/07/13 13:05:46;;;;;;;2.85;1.27;;;;;;;;;;6099112;23;20081;-55
2022/07/13 13:08:14;;;;;;;1.70;1.10;;;;;;;;;;6113479;23;20018;-54
2022/07/13 13:10:41;;;;;;;3.33;1.17;;;;;;;;;;6112877;23;20018;-55
2022/07/13 13:13:08;;;;;;;4.38;1.63;;;;;;;;;;6114112;23;20045;-57
2022/07/13 13:15:35;;;;;;;2.92;1.30;;;;;;;;;;6108297;23;20026;-57
2022/07/13 13:18:02;;;;;;;4.78;1.55;;;;;;;;;;6115002;23;20025;-55
2022/07/13 13:20:28;;;;;;;3.35;1.70;;;;;;;;;;6106299;23;20045;-56
2022/07/13 13:22:55;;;;;;;3.10;1.20;;;;;;;;;;6108442;23;20022;-55
2022/07/13 13:25:24;;;;;;;1.90;1.25;;;;;;;;;;6118567;23;20081;-58
2022/07/13 13:27:50;;;;;;;2.17;1.27;;;;;;;;;;6112599;23;20474;-55
2022/07/13 13:33:01;;;;;;;5.35;1.35;;;;;;;;;;6116841;23;20018;-55
2022/07/13 13:35:27;;;;;;;1.60;1.15;;;;;;;;;;6110621;23;20073;-57
2022/07/13 13:37:54;;;;;;;3.33;1.42;;;;;;;;;;6111367;23;20025;-56
2022/07/13 13:40:20;;;;;;;2.08;1.10;;;;;;;;;;6110782;23;20635;-56
2022/07/13 13:42:48;;;;;;;3.28;1.02;;;;;;;;;;6111081;23;20014;-57
2022/07/13 13:45:15;;;;;;;1.50;0.90;;;;;;;;;;6108040;23;20014;-56
2022/07/13 13:47:41;;;;;;;2.25;1.00;;;;;;;;;;6111124;23;20066;-57
2022/07/13 13:50:08;;;;;;;3.35;1.23;;;;;;;;;;6110391;23;20100;-55
2022/07/13 13:52:34;;;;;;;6.43;1.30;;;;;;;;;;6114015;23;20018;-58
2022/07/13 13:55:02;;;;;;;2.47;0.80;;;;;;;;;;6113120;23;20410;-56
2022/07/13 13:57:28;;;;;;;1.58;1.10;;;;;;;;;;6111484;23;20018;-56
2022/07/13 13:59:56;;;;;;;2.08;1.17;;;;;;;;;;6100748;23;20013;-53
2022/07/13 14:02:23;;;;;;;1.02;0.73;;;;;;;;;;6112916;23;20013;-57
2022/07/13 14:04:49;;;;;;;2.70;1.00;;;;;;;;;;6100216;23;20022;-58
2022/07/13 14:07:16;;;;;;;1.95;1.00;;;;;;;;;;6116342;23;20089;-57
2022/07/13 14:09:42;;;;;;;0.98;0.85;;;;;;;;;;6102393;23;20018;-55
2022/07/13 14:12:09;;;;;;;0.57;0.40;;;;;;;;;;6114038;23;20017;-56
2022/07/13 14:14:35;;;;;;;1.88;1.00;;;;;;;;;;6106391;23;20018;-56
2022/07/13 14:17:03;;;;;;;1.40;0.70;;;;;;;;;;6111757;23;20014;-56
2022/07/13 14:19:30;;;;;;;1.98;0.85;;;;;;;;;;6106016;23;20033;-55
2022/07/13 14:21:56;;;;;;;2.60;0.98;;;;;;;;;;6115821;23;20079;-56
2022/07/13 14:24:23;;;;;;;1.77;1.23;;;;;;;;;;6108341;23;20500;-56
2022/07/13 14:26:50;;;;;;;0.88;0.63;;;;;;;;;;6117588;23;20100;-56
2022/07/13 14:29:17;;;;;;;2.53;1.02;;;;;;;;;;6064533;23;20022;-55
2022/07/13 14:31:43;;;;;;;1.80;0.98;;;;;;;;;;6116999;23;20018;-57
2022/07/13 14:34:11;;;;;;;1.55;0.70;;;;;;;;;;6108893;23;20014;-57
2022/07/13 14:36:37;;;;;;;3.00;1.10;;;;;;;;;;6112706;23;20026;-57
2022/07/13 14:39:04;;;;;;;1.67;0.70;;;;;;;;;;6113902;23;20013;-57
2022/07/13 14:41:30;;;;;;;4.85;0.90;;;;;;;;;;6106306;23;20024;-56
2022/07/13 14:44:02;;;;;;;2.88;0.80;;;;;;;;;;6115055;23;20018;-56
2022/07/13 14:46:28;;;;;;;1.92;1.05;;;;;;;;;;6081151;23;20088;-57
2022/07/13 14:48:54;;;;;;;3.20;0.85;;;;;;;;;;6110548;23;20014;-57
2022/07/13 14:51:23;;;;;;;1.40;0.75;;;;;;;;;;6108827;23;20018;-57
2022/07/13 14:53:54;;;;;;;1.10;0.50;;;;;;;;;;6114157;23;20049;-57
2022/07/13 14:56:20;;;;;;;2.15;0.85;;;;;;;;;;6110779;23;20018;-56
2022/07/13 14:58:52;;;;;;;2.10;0.90;;;;;;;;;;6112041;23;20018;-55